createdAt,value
2022-09-28T00:01:09.832Z,84.60
2022-09-28T00:05:13.247Z,84.60
2022-09-28T00:09:16.910Z,85.00
2022-09-28T00:13:21.509Z,85.20
2022-09-28T00:17:26.455Z,85.20
2022-09-28T00:21:31.691Z,85.00
2022-09-28T00:25:34.576Z,84.70
2022-09-28T00:29:39.245Z,84.40
2022-09-28T00:33:42.904Z,84.00
2022-09-28T00:37:45.790Z,84.50
2022-09-28T00:41:48.832Z,84.50
2022-09-28T00:45:59.599Z,84.90
2022-09-28T00:50:06.394Z,84.80
2022-09-28T00:54:10.581Z,84.90
2022-09-28T00:58:17.629Z,85.10
2022-09-28T01:02:22.730Z,85.30
2022-09-28T01:06:34.928Z,85.40
2022-09-28T01:10:37.902Z,85.20
2022-09-28T01:14:42.275Z,84.70
2022-09-28T01:18:55.486Z,85.40
2022-09-28T01:23:31.398Z,85.80
2022-09-28T01:27:40.526Z,85.50
2022-09-28T01:31:47.213Z,86.60
2022-09-28T01:35:53.496Z,86.40
2022-09-28T01:39:57.049Z,86.80
2022-09-28T01:44:03.898Z,86.10
2022-09-28T01:48:09.306Z,86.30
2022-09-28T01:52:17.296Z,86.10
2022-09-28T01:56:25.566Z,86.00
2022-09-28T02:00:30.137Z,85.50
2022-09-28T02:04:39.507Z,85.50
2022-09-28T02:08:47.880Z,85.30
2022-09-28T02:12:55.682Z,85.70
2022-09-28T02:17:00.194Z,86.20
2022-09-28T02:21:09.991Z,86.00
2022-09-28T02:25:19.353Z,86.00
2022-09-28T02:29:22.306Z,85.80
2022-09-28T02:33:32.395Z,86.10
2022-09-28T02:37:35.384Z,86.10
2022-09-28T02:41:49.614Z,86.00
2022-09-28T02:46:02.692Z,86.50
2022-09-28T02:50:16.850Z,86.60
2022-09-28T02:54:37.633Z,86.80
2022-09-28T02:58:49.486Z,86.90
2022-09-28T03:03:02.325Z,86.90
2022-09-28T03:07:12.201Z,87.00
2022-09-28T03:11:19.264Z,87.00
2022-09-28T03:15:24.580Z,87.20
2022-09-28T03:19:31.940Z,87.00
2022-09-28T03:23:36.154Z,86.90
2022-09-28T03:27:39.549Z,86.80
2022-09-28T03:31:44.273Z,87.10
2022-09-28T03:35:47.940Z,87.90
2022-09-28T03:39:52.200Z,88.10
2022-09-28T03:43:55.326Z,88.40
2022-09-28T03:47:58.190Z,88.20
2022-09-28T03:52:01.066Z,88.40
2022-09-28T03:56:06.666Z,88.50
2022-09-28T04:00:11.250Z,88.50
2022-09-28T04:04:14.588Z,88.10
2022-09-28T04:08:17.438Z,88.50
2022-09-28T04:12:21.785Z,89.00
2022-09-28T04:16:24.667Z,88.70
2022-09-28T04:20:27.637Z,88.50
2022-09-28T04:24:30.562Z,88.10
2022-09-28T04:28:52.591Z,88.20
2022-09-28T04:32:55.515Z,88.30
2022-09-28T04:36:58.379Z,88.30
2022-09-28T04:41:01.313Z,88.20
2022-09-28T04:45:07.645Z,88.30
2022-09-28T04:49:11.297Z,88.10
2022-09-28T04:53:14.181Z,87.80
2022-09-28T04:57:17.635Z,87.90
2022-09-28T05:01:23.755Z,88.10
2022-09-28T05:05:26.638Z,87.80
2022-09-28T05:09:29.624Z,87.80
2022-09-28T05:13:33.468Z,87.90
2022-09-28T05:17:38.640Z,87.70
2022-09-28T05:21:44.058Z,87.50
2022-09-28T05:25:46.962Z,87.30
2022-09-28T05:29:49.824Z,87.60
2022-09-28T05:33:54.491Z,87.40
2022-09-28T05:37:57.850Z,87.30
2022-09-28T05:42:00.713Z,87.00
2022-09-28T05:46:03.599Z,87.20
2022-09-28T05:50:12.823Z,87.20
2022-09-28T05:54:16.789Z,87.10
2022-09-28T05:58:19.954Z,87.10
2022-09-28T06:02:22.964Z,87.20
2022-09-28T06:06:27.210Z,86.90
2022-09-28T06:10:30.190Z,87.10
2022-09-28T06:14:33.611Z,86.60
2022-09-28T06:18:36.526Z,86.90
2022-09-28T06:22:40.710Z,86.80
2022-09-28T06:26:43.567Z,86.40
2022-09-28T06:30:48.181Z,87.00
2022-09-28T06:34:56.057Z,87.00
2022-09-28T06:39:00.655Z,86.50
2022-09-28T06:43:06.945Z,85.90
2022-09-28T06:47:10.607Z,86.40
2022-09-28T06:51:13.496Z,85.80
2022-09-28T06:55:17.684Z,86.70
2022-09-28T06:59:21.109Z,86.80
2022-09-28T07:03:24.191Z,86.70
2022-09-28T07:07:27.567Z,87.30
2022-09-28T07:11:34.567Z,87.50
2022-09-28T07:15:37.858Z,88.00
2022-09-28T07:19:40.702Z,88.70
2022-09-28T07:23:52.762Z,88.10
2022-09-28T07:27:59.639Z,88.00
2022-09-28T07:32:03.536Z,88.40
2022-09-28T07:36:07.565Z,88.60
2022-09-28T07:40:28.811Z,89.00
2022-09-28T07:44:33.764Z,89.40
2022-09-28T07:48:37.738Z,90.00
2022-09-28T07:52:40.605Z,90.00
2022-09-28T07:56:43.545Z,90.50
2022-09-28T08:00:48.543Z,90.80
2022-09-28T08:04:51.860Z,91.50
2022-09-28T08:08:56.329Z,91.20
2022-09-28T08:13:03.312Z,91.30
2022-09-28T08:17:08.892Z,91.20
2022-09-28T08:21:29.457Z,90.90
2022-09-28T08:25:32.384Z,90.70
2022-09-28T08:29:35.251Z,90.70
2022-09-28T08:33:39.449Z,90.10
2022-09-28T08:37:45.876Z,90.20
2022-09-28T08:42:05.523Z,89.70
2022-09-28T08:46:10.303Z,89.90
2022-09-28T08:50:19.062Z,89.40
2022-09-28T08:54:31.661Z,89.00
2022-09-28T08:58:36.782Z,89.30
2022-09-28T09:02:42.321Z,89.00
2022-09-28T09:07:04.950Z,88.00
2022-09-28T09:11:16.731Z,87.70
2022-09-28T09:15:40.131Z,87.40
2022-09-28T09:19:52.516Z,85.70
2022-09-28T09:23:58.137Z,85.90
2022-09-28T09:28:36.158Z,85.90
2022-09-28T09:33:05.503Z,84.90
2022-09-28T09:37:22.472Z,84.80
2022-09-28T09:41:41.457Z,85.20
2022-09-28T09:46:02.594Z,85.70
2022-09-28T09:50:12.721Z,84.80
2022-09-28T09:54:22.108Z,84.70
2022-09-28T09:58:30.463Z,84.70
2022-09-28T10:02:35.608Z,83.60
2022-09-28T10:06:39.807Z,82.40
2022-09-28T10:10:50.501Z,80.70
2022-09-28T10:14:56.053Z,81.20
2022-09-28T10:18:58.942Z,79.90
2022-09-28T10:23:05.831Z,79.50
2022-09-28T10:27:14.937Z,81.00
2022-09-28T10:31:40.627Z,79.60
2022-09-28T10:35:44.436Z,76.90
2022-09-28T10:39:51.648Z,76.80
2022-09-28T10:44:06.700Z,77.30
2022-09-28T10:48:20.226Z,78.00
2022-09-28T10:52:38.407Z,78.00
2022-09-28T10:56:41.941Z,74.80
2022-09-28T11:00:46.167Z,76.20
2022-09-28T11:04:55.870Z,75.10
2022-09-28T11:09:01.513Z,75.60
2022-09-28T11:13:04.440Z,75.50
2022-09-28T11:17:27.260Z,75.70
2022-09-28T11:21:41.123Z,74.00
2022-09-28T11:25:44.240Z,76.50
2022-09-28T11:29:56.725Z,74.70
2022-09-28T11:34:06.644Z,75.30
2022-09-28T11:38:31.797Z,75.40
2022-09-28T11:42:45.706Z,75.40
2022-09-28T11:46:57.166Z,76.60
2022-09-28T11:51:03.767Z,76.70
2022-09-28T11:55:15.334Z,76.60
2022-09-28T11:59:26.696Z,77.30
2022-09-28T12:03:36.647Z,76.90
2022-09-28T12:07:45.055Z,77.00
2022-09-28T12:11:53.580Z,75.90
2022-09-28T12:16:31.587Z,74.00
2022-09-28T12:20:28.376Z,75.10
2022-09-28T12:24:34.840Z,75.90
2022-09-28T12:28:42.950Z,75.50
2022-09-28T12:32:50.834Z,74.70
2022-09-28T12:37:07.529Z,72.60
2022-09-28T12:41:24.377Z,72.10
2022-09-28T12:46:09.780Z,71.20
2022-09-28T12:50:38.114Z,69.60
2022-09-28T12:55:03.648Z,68.10
2022-09-28T12:59:19.774Z,68.90
2022-09-28T13:03:45.904Z,69.30
2022-09-28T13:07:57.303Z,71.40
2022-09-28T13:12:13.129Z,70.70
2022-09-28T13:16:24.513Z,71.00
2022-09-28T13:20:49.482Z,71.20
2022-09-28T13:24:55.680Z,73.50
2022-09-28T13:29:04.839Z,75.90
2022-09-28T13:33:11.783Z,76.80
2022-09-28T13:37:24.921Z,74.20
2022-09-28T13:41:31.817Z,75.20
2022-09-28T13:45:56.815Z,75.30
2022-09-28T13:50:15.376Z,76.00
2022-09-28T13:54:31.941Z,74.00
2022-09-28T13:58:39.875Z,71.70
2022-09-28T14:02:47.437Z,69.40
2022-09-28T14:06:57.009Z,69.60
2022-09-28T14:11:40.218Z,70.00
2022-09-28T14:15:46.907Z,69.50
2022-09-28T14:19:54.084Z,70.30
2022-09-28T14:24:16.593Z,70.30
2022-09-28T14:28:36.805Z,70.50
2022-09-28T14:32:43.162Z,70.80
2022-09-28T14:37:07.153Z,70.70
2022-09-28T14:41:26.409Z,70.20
2022-09-28T14:45:38.933Z,69.40
2022-09-28T14:49:48.960Z,69.80
2022-09-28T14:53:51.945Z,71.20
2022-09-28T14:57:58.851Z,70.50
2022-09-28T15:02:10.309Z,70.70
2022-09-28T15:06:16.840Z,71.20
2022-09-28T15:10:32.325Z,72.20
2022-09-28T15:14:42.312Z,72.40
2022-09-28T15:19:20.994Z,72.90
2022-09-28T15:23:34.313Z,73.60
2022-09-28T15:27:39.133Z,73.50
2022-09-28T15:31:42.005Z,73.90
2022-09-28T15:35:48.852Z,73.90
2022-09-28T15:39:53.501Z,74.60
2022-09-28T15:44:15.861Z,74.40
2022-09-28T15:48:21.497Z,74.70
2022-09-28T15:52:36.094Z,74.80
2022-09-28T15:56:52.378Z,75.20
2022-09-28T16:01:36.567Z,76.00
2022-09-28T16:05:45.128Z,76.10
2022-09-28T16:10:01.628Z,76.10
2022-09-28T16:14:07.977Z,76.10
2022-09-28T16:18:20.461Z,76.10
2022-09-28T16:22:28.591Z,76.40
2022-09-28T16:26:37.289Z,76.70
2022-09-28T17:31:17.972Z,59.10
2022-09-28T17:35:25.273Z,59.20
2022-09-28T17:39:28.461Z,66.20
2022-09-28T17:43:31.334Z,71.90
2022-09-28T17:47:35.710Z,75.00
2022-09-28T17:51:39.305Z,76.70
2022-09-28T17:55:43.418Z,77.80
2022-09-28T17:59:46.526Z,78.70
2022-09-28T18:03:50.890Z,79.20
2022-09-28T18:07:54.882Z,79.70
2022-09-28T18:12:01.586Z,80.00
2022-09-28T18:16:05.955Z,80.30
2022-09-28T18:20:12.241Z,81.00
2022-09-28T18:24:15.241Z,81.50
2022-09-28T18:28:18.334Z,82.00
2022-09-28T18:32:21.297Z,82.60
2022-09-28T18:36:30.286Z,82.80
2022-09-28T18:40:33.751Z,82.50
2022-09-28T18:44:36.761Z,82.00
2022-09-28T18:48:41.582Z,82.20
2022-09-28T18:52:47.486Z,83.60
2022-09-28T18:56:51.311Z,83.70
2022-09-28T19:01:04.091Z,83.80
2022-09-28T19:05:16.736Z,83.70
2022-09-28T19:09:24.551Z,83.90
2022-09-28T19:13:29.057Z,84.60
2022-09-28T19:17:33.697Z,85.40
2022-09-28T19:21:37.529Z,85.60
2022-09-28T19:25:42.040Z,85.20
2022-09-28T19:29:44.952Z,85.00
2022-09-28T19:33:48.302Z,85.10
2022-09-28T19:37:51.542Z,85.70
2022-09-28T19:41:59.375Z,86.10
2022-09-28T19:46:05.422Z,85.60
2022-09-28T19:50:10.270Z,85.90
2022-09-28T19:54:13.722Z,86.00
2022-09-28T19:58:18.041Z,86.10
2022-09-28T20:02:21.205Z,86.00
2022-09-28T20:06:24.522Z,86.00
2022-09-28T20:10:27.482Z,86.40
2022-09-28T20:14:34.279Z,86.60
2022-09-28T20:18:43.760Z,87.30
2022-09-28T20:22:46.695Z,87.30
2022-09-28T20:26:49.721Z,87.50
2022-09-28T20:30:54.101Z,87.50
2022-09-28T20:34:57.030Z,87.30
2022-09-28T20:39:02.713Z,87.70
2022-09-28T20:43:06.561Z,87.40
2022-09-28T20:47:10.924Z,87.30
2022-09-28T20:51:16.050Z,87.60
2022-09-28T20:55:19.009Z,87.80
2022-09-28T20:59:24.414Z,87.70
2022-09-28T21:03:31.615Z,87.30
2022-09-28T21:07:36.512Z,87.30
2022-09-28T21:11:40.343Z,87.20
2022-09-28T21:15:43.259Z,86.90
2022-09-28T21:19:47.639Z,86.30
2022-09-28T21:23:53.482Z,86.50
2022-09-28T21:27:56.415Z,86.40
2022-09-28T21:31:59.345Z,86.60
2022-09-28T21:36:04.830Z,87.10
2022-09-28T21:40:09.854Z,86.80
2022-09-28T21:44:12.854Z,86.90
2022-09-28T21:48:15.858Z,87.10
2022-09-28T21:52:20.396Z,87.50
2022-09-28T21:56:24.092Z,87.60
2022-09-28T22:00:27.059Z,87.70
2022-09-28T22:04:30.025Z,87.90
2022-09-28T22:08:34.641Z,88.10
2022-09-28T22:12:37.795Z,88.40
2022-09-28T22:16:41.001Z,88.50
2022-09-28T22:20:44.246Z,88.50
2022-09-28T22:24:48.532Z,88.50
2022-09-28T22:28:53.550Z,88.50
2022-09-28T22:32:56.484Z,88.50
2022-09-28T22:36:59.480Z,88.50
2022-09-28T22:41:04.349Z,88.30
2022-09-28T22:45:08.083Z,88.50
2022-09-28T22:49:11.650Z,88.50
2022-09-28T22:53:15.082Z,88.70
2022-09-28T22:57:19.417Z,89.00
2022-09-28T23:01:24.221Z,89.30
2022-09-28T23:05:27.394Z,89.10
2022-09-28T23:09:30.321Z,89.00
2022-09-28T23:13:35.141Z,89.10
2022-09-28T23:17:38.244Z,88.30
2022-09-28T23:21:41.166Z,88.10
2022-09-28T23:25:44.074Z,87.70
2022-09-28T23:29:48.998Z,87.30
2022-09-28T23:33:52.628Z,87.30
2022-09-28T23:37:55.504Z,86.90
2022-09-28T23:41:58.963Z,86.70
2022-09-28T23:46:03.557Z,86.10
2022-09-28T23:50:07.303Z,86.40
2022-09-28T23:54:10.211Z,86.00
2022-09-28T23:58:13.445Z,86.50
